createdAt,value
2023-05-09T00:01:45.389Z,100097.00
2023-05-09T00:05:46.971Z,100099.75
2023-05-09T00:09:48.444Z,100090.28
2023-05-09T00:13:51.286Z,100080.47
2023-05-09T00:17:52.782Z,100091.19
2023-05-09T00:21:54.351Z,100088.66
2023-05-09T00:25:56.197Z,100086.00
2023-05-09T00:29:59.030Z,100077.38
2023-05-09T00:34:00.520Z,100070.25
2023-05-09T00:38:02.006Z,100069.63
2023-05-09T00:42:03.587Z,100062.28
2023-05-09T00:46:06.569Z,100056.84
2023-05-09T00:50:09.283Z,100077.59
2023-05-09T00:54:10.806Z,100075.72
2023-05-09T00:58:12.396Z,100063.56
2023-05-09T01:02:16.051Z,100061.09
2023-05-09T01:06:28.082Z,100058.97
2023-05-09T01:10:35.289Z,100055.22
2023-05-09T01:14:44.388Z,100050.66
2023-05-09T01:18:51.421Z,100047.28
2023-05-09T01:23:11.906Z,100036.81
2023-05-09T01:27:22.062Z,100037.88
2023-05-09T01:31:25.644Z,100033.28
2023-05-09T01:35:31.386Z,100028.03
2023-05-09T01:39:34.497Z,100022.59
2023-05-09T01:43:38.162Z,100019.03
2023-05-09T01:47:42.887Z,100021.78
2023-05-09T01:51:45.014Z,100022.22
2023-05-09T01:55:47.498Z,100015.72
2023-05-09T01:59:49.532Z,100014.03
2023-05-09T02:03:54.117Z,100014.25
2023-05-09T02:07:57.040Z,100014.69
2023-05-09T02:11:58.543Z,100006.31
2023-05-09T02:16:00.707Z,100010.25
2023-05-09T02:20:04.153Z,100016.53
2023-05-09T02:24:06.634Z,100020.97
2023-05-09T02:28:09.218Z,100027.25
2023-05-09T02:32:13.913Z,100020.53
2023-05-09T02:36:18.102Z,100009.22
2023-05-09T02:40:20.435Z,99996.66
2023-05-09T02:44:21.902Z,100001.28
2023-05-09T02:48:23.416Z,100000.41
2023-05-09T02:52:26.248Z,100000.00
2023-05-09T02:56:27.760Z,99998.72
2023-05-09T03:00:29.248Z,100007.31
2023-05-09T03:04:30.781Z,100009.19
2023-05-09T03:08:33.615Z,100007.09
2023-05-09T03:12:35.084Z,99997.88
2023-05-09T03:16:36.711Z,100003.31
2023-05-09T03:20:38.184Z,99994.06
2023-05-09T03:24:41.052Z,99988.59
2023-05-09T03:28:42.549Z,99993.66
2023-05-09T03:32:44.066Z,99989.91
2023-05-09T03:36:45.585Z,99989.06
2023-05-09T03:40:48.407Z,99981.56
2023-05-09T03:44:49.968Z,99977.78
2023-05-09T03:48:51.477Z,99965.22
2023-05-09T03:52:52.948Z,99967.94
2023-05-09T03:56:55.793Z,99973.63
2023-05-09T04:00:57.277Z,99974.47
2023-05-09T04:04:58.848Z,99975.72
2023-05-09T04:09:00.764Z,99974.25
2023-05-09T04:13:03.627Z,99978.63
2023-05-09T04:17:05.190Z,99984.09
2023-05-09T04:21:06.682Z,99979.69
2023-05-09T04:25:08.376Z,99976.16
2023-05-09T04:29:11.193Z,99966.94
2023-05-09T04:33:12.683Z,99956.88
2023-05-09T04:37:14.197Z,99969.84
2023-05-09T04:41:15.683Z,99962.31
2023-05-09T04:45:18.744Z,99956.63
2023-05-09T04:49:20.247Z,99956.00
2023-05-09T04:53:21.728Z,99946.53
2023-05-09T04:57:23.203Z,99947.13
2023-05-09T05:01:26.040Z,99946.69
2023-05-09T05:05:27.905Z,99946.66
2023-05-09T05:09:29.603Z,99946.19
2023-05-09T05:13:31.099Z,99951.00
2023-05-09T05:17:34.036Z,99939.00
2023-05-09T05:21:35.552Z,99943.97
2023-05-09T05:25:37.129Z,99935.94
2023-05-09T05:29:38.603Z,99938.47
2023-05-09T05:33:41.422Z,99939.78
2023-05-09T05:37:43.165Z,99938.72
2023-05-09T05:41:44.670Z,99939.94
2023-05-09T05:45:46.202Z,99941.53
2023-05-09T05:49:49.067Z,99942.31
2023-05-09T05:53:50.541Z,99931.78
2023-05-09T05:57:52.030Z,99927.53
2023-05-09T06:01:53.523Z,99931.19
2023-05-09T06:05:56.619Z,99933.44
2023-05-09T06:09:58.194Z,99928.50
2023-05-09T06:13:59.702Z,99916.22
2023-05-09T06:18:01.308Z,99912.13
2023-05-09T06:22:04.237Z,99911.81
2023-05-09T06:26:05.760Z,99903.94
2023-05-09T06:30:21.423Z,99896.88
2023-05-09T06:34:26.715Z,99899.66
2023-05-09T06:38:29.549Z,99893.56
2023-05-09T06:42:31.062Z,99877.78
2023-05-09T06:46:32.609Z,99891.06
2023-05-09T06:50:34.200Z,99880.84
2023-05-09T06:54:37.027Z,99870.41
2023-05-09T06:58:38.600Z,99867.56
2023-05-09T07:02:40.109Z,99858.41
2023-05-09T07:06:41.643Z,99858.44
2023-05-09T07:10:44.647Z,99852.16
2023-05-09T07:14:46.127Z,99847.41
2023-05-09T07:18:47.644Z,99857.88
2023-05-09T07:22:49.199Z,99856.53
2023-05-09T07:26:52.539Z,99853.78
2023-05-09T07:30:55.345Z,99842.69
2023-05-09T07:34:56.846Z,99847.78
2023-05-09T07:38:58.320Z,99830.25
2023-05-09T07:43:01.182Z,99817.91
2023-05-09T07:47:02.662Z,99814.78
2023-05-09T07:51:04.484Z,99809.38
2023-05-09T07:55:06.428Z,99797.25
2023-05-09T07:59:09.279Z,99800.38
2023-05-09T08:03:10.925Z,99797.56
2023-05-09T08:07:12.561Z,99795.50
2023-05-09T08:11:14.047Z,99797.91
2023-05-09T08:15:17.085Z,99783.91
2023-05-09T08:19:18.752Z,99784.66
2023-05-09T08:23:20.267Z,99790.06
2023-05-09T08:27:21.775Z,99779.41
2023-05-09T08:31:24.670Z,99782.69
2023-05-09T08:35:26.214Z,99774.53
2023-05-09T08:39:27.978Z,99776.44
2023-05-09T08:43:29.959Z,99763.50
2023-05-09T08:47:34.522Z,99771.19
2023-05-09T08:51:36.870Z,99761.34
2023-05-09T08:55:38.770Z,99760.44
2023-05-09T08:59:42.080Z,99755.06
2023-05-09T09:03:46.578Z,99744.97
2023-05-09T09:07:48.652Z,99744.75
2023-05-09T09:11:50.860Z,99740.09
2023-05-09T09:15:53.322Z,99745.03
2023-05-09T09:19:58.823Z,99736.22
2023-05-09T09:24:00.330Z,99740.13
2023-05-09T09:28:01.868Z,99737.53
2023-05-09T09:32:05.251Z,99731.88
2023-05-09T09:36:08.233Z,99732.22
2023-05-09T09:40:11.247Z,99729.59
2023-05-09T09:44:13.875Z,99721.59
2023-05-09T09:48:15.417Z,99718.94
2023-05-09T09:52:24.414Z,99721.38
2023-05-09T09:56:38.781Z,99718.97
2023-05-09T10:00:40.332Z,99707.72
2023-05-09T10:04:41.831Z,99704.41
2023-05-09T10:08:45.393Z,99712.16
2023-05-09T10:12:47.599Z,99705.28
2023-05-09T10:16:50.990Z,99702.25
2023-05-09T10:20:53.283Z,99698.38
2023-05-09T10:25:02.336Z,99686.22
2023-05-09T10:29:10.400Z,99680.72
2023-05-09T10:33:15.706Z,99669.09
2023-05-09T10:37:17.392Z,99679.06
2023-05-09T10:41:21.158Z,99669.09
2023-05-09T10:45:23.247Z,99655.75
2023-05-09T10:49:25.032Z,99647.47
2023-05-09T10:53:40.846Z,99640.69
2023-05-09T10:57:53.325Z,99629.09
2023-05-09T11:01:57.531Z,99624.69
2023-05-09T11:05:59.269Z,99629.09
2023-05-09T11:10:07.941Z,99615.66
2023-05-09T11:14:28.957Z,99603.28
2023-05-09T11:18:31.235Z,99598.50
2023-05-09T11:22:39.549Z,99588.88
2023-05-09T11:26:47.994Z,99584.09
2023-05-09T11:30:51.180Z,99580.06
2023-05-09T11:34:52.956Z,99573.66
2023-05-09T11:39:06.265Z,99556.19
2023-05-09T11:43:07.927Z,99547.25
2023-05-09T11:47:11.762Z,99552.53
2023-05-09T11:51:17.194Z,99539.56
2023-05-09T11:55:20.051Z,99538.78
2023-05-09T11:59:21.816Z,99526.94
2023-05-09T12:03:24.952Z,99521.50
2023-05-09T12:07:26.713Z,99514.50
2023-05-09T12:11:30.235Z,99506.03
2023-05-09T12:15:36.325Z,99512.31
2023-05-09T12:19:39.160Z,99503.22
2023-05-09T12:23:40.657Z,99511.13
2023-05-09T12:27:42.202Z,99495.97
2023-05-09T12:31:44.104Z,99489.81
2023-05-09T12:35:47.930Z,99484.28
2023-05-09T12:40:01.051Z,99480.22
2023-05-09T12:44:03.201Z,99482.44
2023-05-09T12:48:04.917Z,99458.63
2023-05-09T12:52:17.691Z,99464.06
2023-05-09T12:56:20.670Z,99453.63
2023-05-09T13:00:22.412Z,99445.81
2023-05-09T13:04:25.118Z,99444.34
2023-05-09T13:08:28.937Z,99433.22
2023-05-09T13:12:30.454Z,99427.28
2023-05-09T13:16:32.063Z,99426.88
2023-05-09T13:20:33.594Z,99419.06
2023-05-09T13:24:36.437Z,99404.63
2023-05-09T13:28:37.942Z,99393.66
2023-05-09T13:32:39.470Z,99381.53
2023-05-09T13:36:40.942Z,99376.41
2023-05-09T13:40:43.805Z,99366.00
2023-05-09T13:44:45.291Z,99366.09
2023-05-09T13:48:46.792Z,99343.91
2023-05-09T13:52:48.271Z,99351.22
2023-05-09T13:56:51.120Z,99342.72
2023-05-09T14:00:52.651Z,99345.38
2023-05-09T14:04:54.118Z,99323.06
2023-05-09T14:08:55.780Z,99328.59
2023-05-09T14:12:58.845Z,99314.94
2023-05-09T14:17:00.554Z,99314.44
2023-05-09T14:21:02.034Z,99299.97
2023-05-09T14:25:03.852Z,99305.16
2023-05-09T14:29:06.870Z,99302.13
2023-05-09T14:33:08.392Z,99300.50
2023-05-09T14:37:09.916Z,99287.63
2023-05-09T14:41:11.617Z,99275.41
2023-05-09T14:45:14.445Z,99280.81
2023-05-09T14:49:15.938Z,99268.84
2023-05-09T14:53:17.412Z,99273.66
2023-05-09T14:57:18.898Z,99269.25
2023-05-09T15:01:22.016Z,99264.09
2023-05-09T15:05:23.550Z,99252.28
2023-05-09T15:09:25.095Z,99248.47
2023-05-09T15:13:26.637Z,99250.81
2023-05-09T15:17:29.550Z,99244.22
2023-05-09T15:21:31.060Z,99249.63
2023-05-09T15:25:32.602Z,99249.47
2023-05-09T15:29:34.450Z,99249.16
2023-05-09T15:33:37.319Z,99237.03
2023-05-09T15:37:38.961Z,99241.31
2023-05-09T15:41:40.494Z,99220.91
2023-05-09T15:45:41.986Z,99226.75
2023-05-09T15:49:44.878Z,99217.44
2023-05-09T15:53:46.391Z,99226.41
2023-05-09T15:57:47.896Z,99228.78
2023-05-09T16:01:49.551Z,99213.25
2023-05-09T16:05:52.470Z,99205.50
2023-05-09T16:09:53.960Z,99209.84
2023-05-09T16:13:55.554Z,99203.50
2023-05-09T16:17:57.060Z,99207.97
2023-05-09T16:21:59.983Z,99194.09
2023-05-09T16:26:01.604Z,99197.88
2023-05-09T16:30:03.560Z,99189.84
2023-05-09T16:34:05.080Z,99192.50
2023-05-09T16:38:07.991Z,99180.34
2023-05-09T16:42:09.495Z,99178.88
2023-05-09T16:46:11.033Z,99174.38
2023-05-09T16:50:12.585Z,99165.09
2023-05-09T16:54:15.506Z,99177.53
2023-05-09T16:58:17.048Z,99169.91
2023-05-09T17:02:18.550Z,99152.34
2023-05-09T17:06:20.754Z,99159.13
2023-05-09T17:10:23.626Z,99147.78
2023-05-09T17:14:25.157Z,99151.56
2023-05-09T17:18:36.634Z,99144.63
2023-05-09T17:22:39.716Z,99136.53
2023-05-09T17:26:42.615Z,99137.13
2023-05-09T17:30:44.126Z,99126.91
2023-05-09T17:34:45.618Z,99126.22
2023-05-09T17:38:47.119Z,99131.63
2023-05-09T17:42:50.129Z,99127.97
2023-05-09T17:46:51.614Z,99134.75
2023-05-09T17:50:53.159Z,99122.13
2023-05-09T17:54:54.636Z,99120.53
2023-05-09T17:58:58.810Z,99120.72
2023-05-09T18:03:00.975Z,99118.56
2023-05-09T18:07:02.667Z,99118.56
2023-05-09T18:11:04.244Z,99111.72
2023-05-09T18:15:08.415Z,99116.50
2023-05-09T18:19:09.952Z,99103.84
2023-05-09T18:23:11.459Z,99110.63
2023-05-09T18:27:12.969Z,99106.31
2023-05-09T18:31:16.661Z,99109.69
2023-05-09T18:35:20.919Z,99103.09
2023-05-09T18:39:22.515Z,99112.53
2023-05-09T18:43:24.015Z,99115.88
2023-05-09T18:47:26.887Z,99115.97
2023-05-09T18:51:28.397Z,99106.59
2023-05-09T18:55:29.878Z,99116.06
2023-05-09T18:59:31.421Z,99112.25
2023-05-09T19:03:34.312Z,99106.19
2023-05-09T19:07:35.929Z,99100.16
2023-05-09T19:11:37.433Z,99092.50
2023-05-09T19:15:38.933Z,99089.69
2023-05-09T19:19:41.752Z,99088.56
2023-05-09T19:23:43.227Z,99085.84
2023-05-09T19:27:44.800Z,99095.22
2023-05-09T19:31:46.288Z,99095.22
2023-05-09T19:35:49.154Z,99094.69
2023-05-09T19:39:50.672Z,99084.75
2023-05-09T19:43:52.227Z,99083.09
2023-05-09T19:47:53.736Z,99074.88
2023-05-09T19:51:56.636Z,99084.22
2023-05-09T19:55:58.125Z,99082.31
2023-05-09T19:59:59.628Z,99077.09
2023-05-09T20:04:01.166Z,99072.13
2023-05-09T20:08:04.361Z,99071.31
2023-05-09T20:12:06.829Z,99071.03
2023-05-09T20:16:08.470Z,99066.63
2023-05-09T20:20:11.263Z,99065.53
2023-05-09T20:24:14.091Z,99058.63
2023-05-09T20:28:15.588Z,99039.38
2023-05-09T20:32:17.164Z,99043.53
2023-05-09T20:36:18.640Z,99036.91
2023-05-09T20:40:21.553Z,99038.53
2023-05-09T20:44:23.454Z,99030.84
2023-05-09T20:48:25.100Z,99023.16
2023-05-09T20:52:26.609Z,99022.63
2023-05-09T20:56:29.558Z,99019.84
2023-05-09T21:00:31.234Z,99020.94
2023-05-09T21:04:32.717Z,99008.84
2023-05-09T21:08:34.241Z,99009.41
2023-05-09T21:12:37.085Z,99004.19
2023-05-09T21:16:38.715Z,98992.38
2023-05-09T21:20:40.690Z,98988.53
2023-05-09T21:24:42.177Z,98987.97
2023-05-09T21:28:45.020Z,98978.63
2023-05-09T21:32:46.548Z,98982.47
2023-05-09T21:36:48.080Z,98979.16
2023-05-09T21:40:50.026Z,98970.94
2023-05-09T21:44:52.836Z,98979.69
2023-05-09T21:48:54.315Z,98969.81
2023-05-09T21:52:55.802Z,98961.28
2023-05-09T21:56:57.299Z,98969.78
2023-05-09T22:01:00.181Z,98965.13
2023-05-09T22:05:01.718Z,98951.13
2023-05-09T22:09:03.520Z,98946.72
2023-05-09T22:13:05.116Z,98946.16
2023-05-09T22:17:08.022Z,98948.94
2023-05-09T22:21:09.560Z,98953.31
2023-05-09T22:25:11.073Z,98950.03
2023-05-09T22:29:12.554Z,98940.13
2023-05-09T22:33:15.398Z,98926.97
2023-05-09T22:37:16.908Z,98938.50
2023-05-09T22:41:18.850Z,98928.03
2023-05-09T22:45:20.610Z,98936.84
2023-05-09T22:49:23.494Z,98931.31
2023-05-09T22:53:24.980Z,98929.09
2023-05-09T22:57:26.489Z,98923.59
2023-05-09T23:01:28.062Z,98915.38
2023-05-09T23:05:31.129Z,98896.13
2023-05-09T23:09:32.735Z,98906.56
2023-05-09T23:13:34.239Z,98903.72
2023-05-09T23:17:35.771Z,98899.63
2023-05-09T23:21:38.652Z,98904.84
2023-05-09T23:25:40.127Z,98890.00
2023-05-09T23:29:41.671Z,98884.47
2023-05-09T23:33:43.217Z,98880.66
2023-05-09T23:37:46.029Z,98885.06
2023-05-09T23:41:47.544Z,98887.22
2023-05-09T23:45:49.251Z,98866.34
2023-05-09T23:49:50.743Z,98872.41
2023-05-09T23:53:53.559Z,98868.50
2023-05-09T23:57:56.152Z,98864.03
